Gonzales, Louisiana
Current Conditions -  °F | °C
As of 6:55 AM on Wednesday 22 Oct 2014 (Local Time) from KL38 Reporting Station
Clear Clear  
Wind Chill: 58°   Ceiling: Unl
Heat Index: 58°   Visibility: 10mi
Dew Point: 58°   Wind: 0mph
Humidity: 100%   Direction: NA
Pressure: 30.06"   Gusts: NA
Location:  30.24°N, 90.92°W
Report Text: KL38 221155Z AUTO 00000KT 10SM CLR 14/14 A3006 RMK AO2 T01420142 10156 20141
Loading
Personal Weather Stations






























Interactive Weather Map
Tropical Storm Tracking
New forecast layout! Learn more

10-Day Weather Forecast

Advertisements
Track Severe Weather on mobile